sensor_id;sensor_type;location;lat;lon;timestamp;temperature;humidity
41924;DHT22;27613;48.116;11.656;2023-11-19T00:01:53;3.70;99.90
41924;DHT22;27613;48.116;11.656;2023-11-19T00:04:19;3.70;99.90
41924;DHT22;27613;48.116;11.656;2023-11-19T00:06:44;3.70;99.90
41924;DHT22;27613;48.116;11.656;2023-11-19T00:09:10;3.70;99.90
41924;DHT22;27613;48.116;11.656;2023-11-19T00:11:35;3.70;99.90
41924;DHT22;27613;48.116;11.656;2023-11-19T00:14:01;3.70;99.90
41924;DHT22;27613;48.116;11.656;2023-11-19T00:16:27;3.80;99.90
41924;DHT22;27613;48.116;11.656;2023-11-19T00:18:53;3.70;99.90
41924;DHT22;27613;48.116;11.656;2023-11-19T00:21:19;3.70;99.90
41924;DHT22;27613;48.116;11.656;2023-11-19T00:23:44;3.80;99.90
41924;DHT22;27613;48.116;11.656;2023-11-19T00:26:10;3.80;99.90
41924;DHT22;27613;48.116;11.656;2023-11-19T00:28:35;3.80;99.90
41924;DHT22;27613;48.116;11.656;2023-11-19T00:31:04;3.80;99.90
41924;DHT22;27613;48.116;11.656;2023-11-19T00:33:29;3.90;99.90
41924;DHT22;27613;48.116;11.656;2023-11-19T00:35:56;3.90;99.90
41924;DHT22;27613;48.116;11.656;2023-11-19T00:38:22;4.00;99.90
41924;DHT22;27613;48.116;11.656;2023-11-19T00:40:47;4.20;99.90
41924;DHT22;27613;48.116;11.656;2023-11-19T00:43:13;4.20;99.90
41924;DHT22;27613;48.116;11.656;2023-11-19T00:45:38;4.30;99.90
41924;DHT22;27613;48.116;11.656;2023-11-19T00:48:04;4.30;99.90
41924;DHT22;27613;48.116;11.656;2023-11-19T00:50:30;4.30;99.90
41924;DHT22;27613;48.116;11.656;2023-11-19T00:52:56;4.40;99.90
41924;DHT22;27613;48.116;11.656;2023-11-19T00:55:22;4.40;99.90
41924;DHT22;27613;48.116;11.656;2023-11-19T00:57:47;4.40;99.90
41924;DHT22;27613;48.116;11.656;2023-11-19T01:00:13;4.40;99.90
41924;DHT22;27613;48.116;11.656;2023-11-19T01:02:45;4.50;99.90
41924;DHT22;27613;48.116;11.656;2023-11-19T01:05:11;4.50;99.90
41924;DHT22;27613;48.116;11.656;2023-11-19T01:07:39;4.50;99.90
41924;DHT22;27613;48.116;11.656;2023-11-19T01:10:05;4.50;99.90
41924;DHT22;27613;48.116;11.656;2023-11-19T01:12:33;4.50;99.90
41924;DHT22;27613;48.116;11.656;2023-11-19T01:14:58;4.60;99.90
41924;DHT22;27613;48.116;11.656;2023-11-19T01:17:24;4.60;99.90
41924;DHT22;27613;48.116;11.656;2023-11-19T01:19:49;4.60;99.90
41924;DHT22;27613;48.116;11.656;2023-11-19T01:22:15;4.60;99.90
41924;DHT22;27613;48.116;11.656;2023-11-19T01:24:41;4.60;99.90
41924;DHT22;27613;48.116;11.656;2023-11-19T01:27:06;4.60;99.90
41924;DHT22;27613;48.116;11.656;2023-11-19T01:29:32;4.70;99.90
41924;DHT22;27613;48.116;11.656;2023-11-19T01:31:58;4.70;99.90
41924;DHT22;27613;48.116;11.656;2023-11-19T01:34:24;4.70;99.90
41924;DHT22;27613;48.116;11.656;2023-11-19T01:36:49;4.70;99.90
41924;DHT22;27613;48.116;11.656;2023-11-19T01:39:15;4.80;99.90
41924;DHT22;27613;48.116;11.656;2023-11-19T01:41:45;4.80;99.90
41924;DHT22;27613;48.116;11.656;2023-11-19T01:44:10;4.80;99.90
41924;DHT22;27613;48.116;11.656;2023-11-19T01:46:43;4.90;99.90
41924;DHT22;27613;48.116;11.656;2023-11-19T01:49:09;4.90;99.90
41924;DHT22;27613;48.116;11.656;2023-11-19T01:51:37;5.00;99.90
41924;DHT22;27613;48.116;11.656;2023-11-19T01:54:05;5.00;99.90
41924;DHT22;27613;48.116;11.656;2023-11-19T01:56:32;5.00;99.90
41924;DHT22;27613;48.116;11.656;2023-11-19T01:58:57;5.00;99.90
41924;DHT22;27613;48.116;11.656;2023-11-19T02:01:23;5.10;99.90
41924;DHT22;27613;48.116;11.656;2023-11-19T02:03:49;5.10;99.90
41924;DHT22;27613;48.116;11.656;2023-11-19T02:06:15;5.10;99.90
41924;DHT22;27613;48.116;11.656;2023-11-19T02:08:40;5.10;99.90
41924;DHT22;27613;48.116;11.656;2023-11-19T02:11:07;5.10;99.90
41924;DHT22;27613;48.116;11.656;2023-11-19T02:13:32;5.10;99.90
41924;DHT22;27613;48.116;11.656;2023-11-19T02:16:01;5.10;99.90
41924;DHT22;27613;48.116;11.656;2023-11-19T02:18:27;5.20;99.90
41924;DHT22;27613;48.116;11.656;2023-11-19T02:20:54;5.20;99.90
41924;DHT22;27613;48.116;11.656;2023-11-19T02:23:20;5.20;99.90
41924;DHT22;27613;48.116;11.656;2023-11-19T02:28:26;5.40;99.90
41924;DHT22;27613;48.116;11.656;2023-11-19T02:30:52;5.40;99.90
41924;DHT22;27613;48.116;11.656;2023-11-19T02:33:18;5.40;99.90
41924;DHT22;27613;48.116;11.656;2023-11-19T02:35:44;5.50;99.90
41924;DHT22;27613;48.116;11.656;2023-11-19T02:38:09;5.50;99.90
41924;DHT22;27613;48.116;11.656;2023-11-19T02:40:36;5.50;99.90
41924;DHT22;27613;48.116;11.656;2023-11-19T02:43:02;5.50;99.90
41924;DHT22;27613;48.116;11.656;2023-11-19T02:45:30;5.60;99.90
41924;DHT22;27613;48.116;11.656;2023-11-19T02:47:56;5.60;99.90
41924;DHT22;27613;48.116;11.656;2023-11-19T02:50:22;5.70;99.90
41924;DHT22;27613;48.116;11.656;2023-11-19T02:52:52;5.80;99.90
41924;DHT22;27613;48.116;11.656;2023-11-19T02:55:18;5.80;99.90
41924;DHT22;27613;48.116;11.656;2023-11-19T02:57:44;5.80;99.90
41924;DHT22;27613;48.116;11.656;2023-11-19T03:00:20;5.90;99.90
41924;DHT22;27613;48.116;11.656;2023-11-19T03:02:50;6.00;99.90
41924;DHT22;27613;48.116;11.656;2023-11-19T03:05:30;5.90;99.90
41924;DHT22;27613;48.116;11.656;2023-11-19T03:07:56;6.00;99.90
41924;DHT22;27613;48.116;11.656;2023-11-19T03:10:22;6.20;99.90
41924;DHT22;27613;48.116;11.656;2023-11-19T03:12:49;6.20;99.90
41924;DHT22;27613;48.116;11.656;2023-11-19T03:15:15;6.20;99.90
41924;DHT22;27613;48.116;11.656;2023-11-19T03:17:41;6.30;99.90
41924;DHT22;27613;48.116;11.656;2023-11-19T03:20:09;6.30;99.90
41924;DHT22;27613;48.116;11.656;2023-11-19T03:22:42;6.30;99.90
41924;DHT22;27613;48.116;11.656;2023-11-19T03:25:08;6.40;99.90
41924;DHT22;27613;48.116;11.656;2023-11-19T03:27:37;6.40;99.90
41924;DHT22;27613;48.116;11.656;2023-11-19T03:30:12;6.40;99.90
41924;DHT22;27613;48.116;11.656;2023-11-19T03:32:38;6.40;99.90
41924;DHT22;27613;48.116;11.656;2023-11-19T03:35:05;6.50;99.90
41924;DHT22;27613;48.116;11.656;2023-11-19T03:37:33;6.50;99.90
41924;DHT22;27613;48.116;11.656;2023-11-19T03:39:59;6.60;99.90
41924;DHT22;27613;48.116;11.656;2023-11-19T03:42:26;6.60;99.90
41924;DHT22;27613;48.116;11.656;2023-11-19T03:44:52;6.60;99.90
41924;DHT22;27613;48.116;11.656;2023-11-19T03:47:18;6.70;99.90
41924;DHT22;27613;48.116;11.656;2023-11-19T03:49:48;6.70;99.90
41924;DHT22;27613;48.116;11.656;2023-11-19T03:52:14;6.70;99.90
41924;DHT22;27613;48.116;11.656;2023-11-19T03:54:39;6.70;99.90
41924;DHT22;27613;48.116;11.656;2023-11-19T03:57:05;6.70;99.90
41924;DHT22;27613;48.116;11.656;2023-11-19T03:59:31;6.70;99.90
41924;DHT22;27613;48.116;11.656;2023-11-19T04:01:56;6.90;99.90
41924;DHT22;27613;48.116;11.656;2023-11-19T04:04:22;6.90;99.90
41924;DHT22;27613;48.116;11.656;2023-11-19T04:06:48;6.90;99.90
41924;DHT22;27613;48.116;11.656;2023-11-19T04:09:14;6.90;99.90
41924;DHT22;27613;48.116;11.656;2023-11-19T04:11:39;7.00;99.90
41924;DHT22;27613;48.116;11.656;2023-11-19T04:14:05;7.00;99.90
41924;DHT22;27613;48.116;11.656;2023-11-19T04:16:31;6.90;99.90
41924;DHT22;27613;48.116;11.656;2023-11-19T04:18:56;6.90;99.90
41924;DHT22;27613;48.116;11.656;2023-11-19T04:21:22;7.00;99.90
41924;DHT22;27613;48.116;11.656;2023-11-19T04:23:49;7.00;99.90
41924;DHT22;27613;48.116;11.656;2023-11-19T04:26:14;7.00;99.90
41924;DHT22;27613;48.116;11.656;2023-11-19T04:28:41;7.10;99.90
41924;DHT22;27613;48.116;11.656;2023-11-19T04:31:06;7.20;99.90
41924;DHT22;27613;48.116;11.656;2023-11-19T04:33:32;7.30;99.90
41924;DHT22;27613;48.116;11.656;2023-11-19T04:35:57;7.20;99.90
41924;DHT22;27613;48.116;11.656;2023-11-19T04:38:23;7.30;99.90
41924;DHT22;27613;48.116;11.656;2023-11-19T04:40:49;7.30;99.90
41924;DHT22;27613;48.116;11.656;2023-11-19T04:43:14;7.30;99.90
41924;DHT22;27613;48.116;11.656;2023-11-19T04:45:41;7.30;99.90
41924;DHT22;27613;48.116;11.656;2023-11-19T04:48:06;7.40;99.90
41924;DHT22;27613;48.116;11.656;2023-11-19T04:50:32;7.50;99.90
41924;DHT22;27613;48.116;11.656;2023-11-19T04:52:57;7.50;99.90
41924;DHT22;27613;48.116;11.656;2023-11-19T04:55:23;7.50;99.90
41924;DHT22;27613;48.116;11.656;2023-11-19T04:57:48;7.60;99.90
41924;DHT22;27613;48.116;11.656;2023-11-19T05:00:14;7.60;99.90
41924;DHT22;27613;48.116;11.656;2023-11-19T05:02:40;7.80;99.90
41924;DHT22;27613;48.116;11.656;2023-11-19T05:05:05;8.20;99.90
41924;DHT22;27613;48.116;11.656;2023-11-19T05:07:31;8.20;99.90
41924;DHT22;27613;48.116;11.656;2023-11-19T05:09:57;8.30;99.90
41924;DHT22;27613;48.116;11.656;2023-11-19T05:12:23;8.40;99.90
41924;DHT22;27613;48.116;11.656;2023-11-19T05:14:48;8.40;99.90
41924;DHT22;27613;48.116;11.656;2023-11-19T05:17:15;8.60;99.90
41924;DHT22;27613;48.116;11.656;2023-11-19T05:19:41;8.60;99.90
41924;DHT22;27613;48.116;11.656;2023-11-19T05:22:06;8.80;99.90
41924;DHT22;27613;48.116;11.656;2023-11-19T05:24:33;8.80;99.90
41924;DHT22;27613;48.116;11.656;2023-11-19T05:26:58;8.90;99.90
41924;DHT22;27613;48.116;11.656;2023-11-19T05:29:24;8.90;99.90
41924;DHT22;27613;48.116;11.656;2023-11-19T05:31:49;9.00;99.90
41924;DHT22;27613;48.116;11.656;2023-11-19T05:34:15;9.00;99.90
41924;DHT22;27613;48.116;11.656;2023-11-19T05:36:41;8.90;99.90
41924;DHT22;27613;48.116;11.656;2023-11-19T05:39:06;8.90;99.90
41924;DHT22;27613;48.116;11.656;2023-11-19T05:41:32;9.00;99.90
41924;DHT22;27613;48.116;11.656;2023-11-19T05:43:57;9.00;99.90
41924;DHT22;27613;48.116;11.656;2023-11-19T05:46:23;8.90;99.90
41924;DHT22;27613;48.116;11.656;2023-11-19T05:48:50;8.90;99.90
41924;DHT22;27613;48.116;11.656;2023-11-19T05:51:16;9.00;99.90
41924;DHT22;27613;48.116;11.656;2023-11-19T05:53:42;9.00;99.90
41924;DHT22;27613;48.116;11.656;2023-11-19T05:56:09;9.00;99.90
41924;DHT22;27613;48.116;11.656;2023-11-19T05:58:35;9.10;99.90
41924;DHT22;27613;48.116;11.656;2023-11-19T06:01:01;9.10;99.90
41924;DHT22;27613;48.116;11.656;2023-11-19T06:03:27;9.10;99.90
41924;DHT22;27613;48.116;11.656;2023-11-19T06:05:53;9.10;99.90
41924;DHT22;27613;48.116;11.656;2023-11-19T06:08:20;9.10;99.90
41924;DHT22;27613;48.116;11.656;2023-11-19T06:10:46;9.20;99.90
41924;DHT22;27613;48.116;11.656;2023-11-19T06:13:13;9.10;99.90
41924;DHT22;27613;48.116;11.656;2023-11-19T06:15:43;9.20;99.90
41924;DHT22;27613;48.116;11.656;2023-11-19T06:18:09;9.20;99.90
41924;DHT22;27613;48.116;11.656;2023-11-19T06:20:37;9.20;99.90
41924;DHT22;27613;48.116;11.656;2023-11-19T06:23:02;9.20;99.90
41924;DHT22;27613;48.116;11.656;2023-11-19T06:25:28;9.20;99.90
41924;DHT22;27613;48.116;11.656;2023-11-19T06:27:54;9.30;99.90
41924;DHT22;27613;48.116;11.656;2023-11-19T06:30:20;9.30;99.90
41924;DHT22;27613;48.116;11.656;2023-11-19T06:32:48;9.30;99.90
41924;DHT22;27613;48.116;11.656;2023-11-19T06:35:14;9.30;99.90
41924;DHT22;27613;48.116;11.656;2023-11-19T06:37:40;9.30;99.90
41924;DHT22;27613;48.116;11.656;2023-11-19T06:40:06;9.30;99.90
41924;DHT22;27613;48.116;11.656;2023-11-19T06:42:32;9.30;99.90
41924;DHT22;27613;48.116;11.656;2023-11-19T06:44:58;9.40;99.90
41924;DHT22;27613;48.116;11.656;2023-11-19T06:47:27;9.40;99.90
41924;DHT22;27613;48.116;11.656;2023-11-19T06:49:54;9.40;99.90
41924;DHT22;27613;48.116;11.656;2023-11-19T06:52:20;9.50;99.90
41924;DHT22;27613;48.116;11.656;2023-11-19T06:54:45;9.40;99.90
41924;DHT22;27613;48.116;11.656;2023-11-19T06:57:12;9.40;99.90
41924;DHT22;27613;48.116;11.656;2023-11-19T06:59:38;9.50;99.90
41924;DHT22;27613;48.116;11.656;2023-11-19T07:02:03;9.50;99.90
41924;DHT22;27613;48.116;11.656;2023-11-19T07:04:30;9.50;99.90
41924;DHT22;27613;48.116;11.656;2023-11-19T07:06:56;9.60;99.90
41924;DHT22;27613;48.116;11.656;2023-11-19T07:09:21;9.60;99.90
41924;DHT22;27613;48.116;11.656;2023-11-19T07:11:49;9.60;99.90
41924;DHT22;27613;48.116;11.656;2023-11-19T07:14:17;9.60;99.90
41924;DHT22;27613;48.116;11.656;2023-11-19T07:16:43;9.70;99.90
41924;DHT22;27613;48.116;11.656;2023-11-19T07:19:08;9.70;99.90
41924;DHT22;27613;48.116;11.656;2023-11-19T07:21:34;9.70;99.90
41924;DHT22;27613;48.116;11.656;2023-11-19T07:24:00;9.80;99.90
41924;DHT22;27613;48.116;11.656;2023-11-19T07:26:26;9.70;99.90
41924;DHT22;27613;48.116;11.656;2023-11-19T07:28:52;9.80;99.90
41924;DHT22;27613;48.116;11.656;2023-11-19T07:31:17;9.80;99.90
41924;DHT22;27613;48.116;11.656;2023-11-19T07:33:46;9.80;99.90
41924;DHT22;27613;48.116;11.656;2023-11-19T07:36:13;9.90;99.90
41924;DHT22;27613;48.116;11.656;2023-11-19T07:38:38;10.00;99.90
41924;DHT22;27613;48.116;11.656;2023-11-19T07:41:05;10.00;99.90
41924;DHT22;27613;48.116;11.656;2023-11-19T07:43:31;10.00;99.90
41924;DHT22;27613;48.116;11.656;2023-11-19T07:45:56;10.00;99.90
41924;DHT22;27613;48.116;11.656;2023-11-19T07:48:24;10.10;99.90
41924;DHT22;27613;48.116;11.656;2023-11-19T07:50:50;10.20;99.90
41924;DHT22;27613;48.116;11.656;2023-11-19T07:53:16;10.20;99.90
41924;DHT22;27613;48.116;11.656;2023-11-19T07:55:42;10.20;99.90
41924;DHT22;27613;48.116;11.656;2023-11-19T07:58:07;10.30;99.90
41924;DHT22;27613;48.116;11.656;2023-11-19T08:00:33;10.30;99.90
41924;DHT22;27613;48.116;11.656;2023-11-19T08:02:58;10.30;99.90
41924;DHT22;27613;48.116;11.656;2023-11-19T08:05:24;10.30;99.90
41924;DHT22;27613;48.116;11.656;2023-11-19T08:07:50;10.20;99.90
41924;DHT22;27613;48.116;11.656;2023-11-19T08:10:17;10.20;99.90
41924;DHT22;27613;48.116;11.656;2023-11-19T08:12:42;10.20;99.90
41924;DHT22;27613;48.116;11.656;2023-11-19T08:15:08;10.20;99.90
41924;DHT22;27613;48.116;11.656;2023-11-19T08:17:34;10.20;99.90
41924;DHT22;27613;48.116;11.656;2023-11-19T08:20:00;10.20;99.90
41924;DHT22;27613;48.116;11.656;2023-11-19T08:22:25;10.30;99.90
41924;DHT22;27613;48.116;11.656;2023-11-19T08:24:51;10.30;99.90
41924;DHT22;27613;48.116;11.656;2023-11-19T08:27:16;10.30;99.90
41924;DHT22;27613;48.116;11.656;2023-11-19T08:29:42;10.30;99.90
41924;DHT22;27613;48.116;11.656;2023-11-19T08:32:07;10.40;99.90
41924;DHT22;27613;48.116;11.656;2023-11-19T08:34:33;10.40;99.90
41924;DHT22;27613;48.116;11.656;2023-11-19T08:36:59;10.50;99.90
41924;DHT22;27613;48.116;11.656;2023-11-19T08:39:25;10.50;99.90
41924;DHT22;27613;48.116;11.656;2023-11-19T08:41:50;10.40;99.90
41924;DHT22;27613;48.116;11.656;2023-11-19T08:44:16;10.50;99.90
41924;DHT22;27613;48.116;11.656;2023-11-19T08:46:49;10.50;99.90
41924;DHT22;27613;48.116;11.656;2023-11-19T08:49:14;10.50;99.90
41924;DHT22;27613;48.116;11.656;2023-11-19T08:51:40;10.60;99.90
41924;DHT22;27613;48.116;11.656;2023-11-19T08:54:07;10.60;99.90
41924;DHT22;27613;48.116;11.656;2023-11-19T08:56:32;10.60;99.90
41924;DHT22;27613;48.116;11.656;2023-11-19T08:59:00;10.60;99.90
41924;DHT22;27613;48.116;11.656;2023-11-19T09:01:25;10.70;99.90
41924;DHT22;27613;48.116;11.656;2023-11-19T09:03:51;10.80;99.90
41924;DHT22;27613;48.116;11.656;2023-11-19T09:06:17;10.80;99.90
41924;DHT22;27613;48.116;11.656;2023-11-19T09:08:43;10.80;99.90
41924;DHT22;27613;48.116;11.656;2023-11-19T09:11:08;10.80;99.90
41924;DHT22;27613;48.116;11.656;2023-11-19T09:13:35;10.80;99.90
41924;DHT22;27613;48.116;11.656;2023-11-19T09:16:00;10.90;99.90
41924;DHT22;27613;48.116;11.656;2023-11-19T09:18:29;10.90;99.90
41924;DHT22;27613;48.116;11.656;2023-11-19T09:20:54;10.90;99.90
41924;DHT22;27613;48.116;11.656;2023-11-19T09:23:20;10.90;99.90
41924;DHT22;27613;48.116;11.656;2023-11-19T09:25:46;11.00;99.90
41924;DHT22;27613;48.116;11.656;2023-11-19T09:28:11;11.00;99.90
41924;DHT22;27613;48.116;11.656;2023-11-19T09:30:38;11.00;99.90
41924;DHT22;27613;48.116;11.656;2023-11-19T09:33:04;11.10;99.90
41924;DHT22;27613;48.116;11.656;2023-11-19T09:35:29;11.20;99.90
41924;DHT22;27613;48.116;11.656;2023-11-19T09:37:55;11.20;99.90
41924;DHT22;27613;48.116;11.656;2023-11-19T09:40:20;11.30;99.90
41924;DHT22;27613;48.116;11.656;2023-11-19T09:42:46;11.30;99.90
41924;DHT22;27613;48.116;11.656;2023-11-19T09:45:16;11.30;99.90
41924;DHT22;27613;48.116;11.656;2023-11-19T09:47:45;11.30;99.90
41924;DHT22;27613;48.116;11.656;2023-11-19T09:50:16;11.30;99.90
41924;DHT22;27613;48.116;11.656;2023-11-19T09:52:42;11.20;99.90
41924;DHT22;27613;48.116;11.656;2023-11-19T09:55:08;11.20;99.90
41924;DHT22;27613;48.116;11.656;2023-11-19T09:57:35;11.20;99.90
41924;DHT22;27613;48.116;11.656;2023-11-19T10:00:02;11.20;99.90
41924;DHT22;27613;48.116;11.656;2023-11-19T10:02:31;11.30;99.90
41924;DHT22;27613;48.116;11.656;2023-11-19T10:04:59;11.40;99.90
41924;DHT22;27613;48.116;11.656;2023-11-19T10:07:25;11.50;99.90
41924;DHT22;27613;48.116;11.656;2023-11-19T10:09:50;11.60;99.90
41924;DHT22;27613;48.116;11.656;2023-11-19T10:12:16;11.70;99.90
41924;DHT22;27613;48.116;11.656;2023-11-19T10:14:43;11.90;99.90
41924;DHT22;27613;48.116;11.656;2023-11-19T10:17:08;11.90;99.90
41924;DHT22;27613;48.116;11.656;2023-11-19T10:19:34;12.00;99.90
41924;DHT22;27613;48.116;11.656;2023-11-19T10:22:06;11.90;99.90
41924;DHT22;27613;48.116;11.656;2023-11-19T10:24:33;11.80;99.90
41924;DHT22;27613;48.116;11.656;2023-11-19T10:27:00;11.90;99.90
41924;DHT22;27613;48.116;11.656;2023-11-19T10:29:26;12.00;99.90
41924;DHT22;27613;48.116;11.656;2023-11-19T10:31:58;12.00;99.90
41924;DHT22;27613;48.116;11.656;2023-11-19T10:34:27;12.50;99.90
41924;DHT22;27613;48.116;11.656;2023-11-19T10:36:53;12.60;99.90
41924;DHT22;27613;48.116;11.656;2023-11-19T10:39:19;13.90;99.90
41924;DHT22;27613;48.116;11.656;2023-11-19T10:41:46;13.30;99.90
41924;DHT22;27613;48.116;11.656;2023-11-19T10:44:12;12.80;99.90
41924;DHT22;27613;48.116;11.656;2023-11-19T10:46:41;12.90;99.90
41924;DHT22;27613;48.116;11.656;2023-11-19T10:49:08;13.20;99.90
41924;DHT22;27613;48.116;11.656;2023-11-19T10:51:33;14.50;99.90
41924;DHT22;27613;48.116;11.656;2023-11-19T10:54:03;14.50;99.90
41924;DHT22;27613;48.116;11.656;2023-11-19T10:56:33;14.80;99.90
41924;DHT22;27613;48.116;11.656;2023-11-19T10:59:01;15.00;99.90
41924;DHT22;27613;48.116;11.656;2023-11-19T11:01:39;14.20;99.90
41924;DHT22;27613;48.116;11.656;2023-11-19T11:04:13;14.00;99.90
41924;DHT22;27613;48.116;11.656;2023-11-19T11:06:39;13.50;99.90
41924;DHT22;27613;48.116;11.656;2023-11-19T11:09:06;13.50;99.90
41924;DHT22;27613;48.116;11.656;2023-11-19T11:11:32;13.30;99.90
41924;DHT22;27613;48.116;11.656;2023-11-19T11:14:00;13.50;99.90
41924;DHT22;27613;48.116;11.656;2023-11-19T11:16:28;13.40;99.90
41924;DHT22;27613;48.116;11.656;2023-11-19T11:18:54;13.50;99.90
41924;DHT22;27613;48.116;11.656;2023-11-19T11:21:22;13.30;99.90
41924;DHT22;27613;48.116;11.656;2023-11-19T11:29:45;13.60;99.90
41924;DHT22;27613;48.116;11.656;2023-11-19T11:32:33;13.60;99.90
41924;DHT22;27613;48.116;11.656;2023-11-19T11:35:16;13.50;99.90
41924;DHT22;27613;48.116;11.656;2023-11-19T11:37:46;13.60;99.90
41924;DHT22;27613;48.116;11.656;2023-11-19T11:40:17;13.60;99.90
41924;DHT22;27613;48.116;11.656;2023-11-19T11:42:44;13.80;99.90
41924;DHT22;27613;48.116;11.656;2023-11-19T11:45:11;13.70;99.90
41924;DHT22;27613;48.116;11.656;2023-11-19T11:50:12;15.00;99.90
41924;DHT22;27613;48.116;11.656;2023-11-19T11:55:34;15.30;99.90
41924;DHT22;27613;48.116;11.656;2023-11-19T11:58:02;15.70;99.90
41924;DHT22;27613;48.116;11.656;2023-11-19T12:00:29;16.20;99.90
41924;DHT22;27613;48.116;11.656;2023-11-19T12:02:55;16.20;99.90
41924;DHT22;27613;48.116;11.656;2023-11-19T12:05:22;15.80;99.90
